createdAt,value
2023-05-06T00:00:58.952Z,101572.75
2023-05-06T00:03:25.650Z,101592.31
2023-05-06T00:05:52.598Z,101595.81
2023-05-06T00:08:21.517Z,101591.44
2023-05-06T00:10:48.358Z,101600.88
2023-05-06T00:13:15.246Z,101585.66
2023-05-06T00:15:41.999Z,101601.69
2023-05-06T00:18:08.782Z,101589.50
2023-05-06T00:20:35.680Z,101594.03
2023-05-06T00:23:02.437Z,101596.72
2023-05-06T00:25:29.048Z,101591.38
2023-05-06T00:27:55.714Z,101588.91
2023-05-06T00:30:22.896Z,101561.47
2023-05-06T00:32:49.508Z,101576.59
2023-05-06T00:35:16.210Z,101563.31
2023-05-06T00:37:46.819Z,101575.94
2023-05-06T00:40:14.405Z,101578.66
2023-05-06T00:42:41.041Z,101561.94
2023-05-06T00:45:08.521Z,101567.38
2023-05-06T00:47:40.032Z,101569.34
2023-05-06T00:50:07.654Z,101538.34
2023-05-06T00:52:34.561Z,101560.88
2023-05-06T00:55:03.656Z,101532.41
2023-05-06T00:57:30.256Z,101562.88
2023-05-06T00:59:59.085Z,101539.06
2023-05-06T01:02:39.645Z,101542.00
2023-05-06T01:05:17.174Z,101471.88
2023-05-06T01:08:25.046Z,101544.78
2023-05-06T01:11:17.955Z,101543.84
2023-05-06T01:13:52.564Z,101536.69
2023-05-06T01:16:23.283Z,101533.03
2023-05-06T01:18:51.841Z,101531.09
2023-05-06T01:21:22.135Z,101524.94
2023-05-06T01:23:52.111Z,101517.69
2023-05-06T01:26:18.827Z,101527.13
2023-05-06T01:28:47.727Z,101533.38
2023-05-06T01:31:25.555Z,101534.13
2023-05-06T01:34:14.023Z,101531.41
2023-05-06T01:37:05.866Z,101530.50
2023-05-06T01:39:37.085Z,101515.38
2023-05-06T01:42:07.473Z,101514.31
2023-05-06T01:44:38.996Z,101498.19
2023-05-06T01:47:11.368Z,101523.63
2023-05-06T01:49:40.339Z,101521.03
2023-05-06T01:52:09.172Z,101524.41
2023-05-06T01:54:35.802Z,101527.97
2023-05-06T01:57:04.606Z,101520.97
2023-05-06T01:59:31.296Z,101521.09
2023-05-06T02:01:57.934Z,101520.56
2023-05-06T02:04:26.932Z,101534.56
2023-05-06T02:06:56.783Z,101507.38
2023-05-06T02:09:23.519Z,101514.75
2023-05-06T02:11:50.151Z,101486.34
2023-05-06T02:14:16.859Z,101480.34
2023-05-06T02:16:43.482Z,101513.31
2023-05-06T02:19:10.116Z,101510.81
2023-05-06T02:21:36.975Z,101509.22
2023-05-06T02:24:03.728Z,101517.97
2023-05-06T02:26:30.405Z,101509.16
2023-05-06T02:28:56.973Z,101474.94
2023-05-06T02:31:25.871Z,101496.41
2023-05-06T02:33:54.812Z,101487.47
2023-05-06T02:36:21.531Z,101507.25
2023-05-06T02:38:48.130Z,101515.19
2023-05-06T02:41:14.802Z,101500.22
2023-05-06T02:43:41.477Z,101462.03
2023-05-06T02:46:08.479Z,101505.50
2023-05-06T02:48:37.825Z,101488.59
2023-05-06T02:51:05.445Z,101487.72
2023-05-06T02:53:34.498Z,101491.59
2023-05-06T02:56:03.457Z,101500.53
2023-05-06T02:58:30.116Z,101463.31
2023-05-06T03:00:56.709Z,101471.13
2023-05-06T03:03:23.334Z,101495.19
2023-05-06T03:05:52.412Z,101465.84
2023-05-06T03:08:21.229Z,101480.09
2023-05-06T03:10:47.851Z,101460.38
2023-05-06T03:13:14.635Z,101487.78
2023-05-06T03:15:41.548Z,101502.69
2023-05-06T03:18:12.876Z,101462.84
2023-05-06T03:20:39.489Z,101499.22
2023-05-06T03:23:11.997Z,101488.59
2023-05-06T03:25:41.068Z,101476.09
2023-05-06T03:28:11.789Z,101490.47
2023-05-06T03:30:38.434Z,101491.41
2023-05-06T03:33:05.102Z,101485.25
2023-05-06T03:35:34.479Z,101484.50
2023-05-06T03:38:03.632Z,101474.72
2023-05-06T03:40:30.340Z,101464.28
2023-05-06T03:42:57.142Z,101474.09
2023-05-06T03:45:23.755Z,101469.69
2023-05-06T03:47:50.387Z,101472.44
2023-05-06T03:50:20.080Z,101486.56
2023-05-06T03:52:46.825Z,101469.59
2023-05-06T03:55:13.693Z,101490.84
2023-05-06T03:57:45.213Z,101491.72
2023-05-06T04:00:12.422Z,101483.00
2023-05-06T04:02:39.151Z,101476.78
2023-05-06T04:05:06.289Z,101469.81
2023-05-06T04:07:32.987Z,101486.69
2023-05-06T04:09:59.608Z,101477.75
2023-05-06T04:12:28.480Z,101464.47
2023-05-06T04:14:55.071Z,101461.88
2023-05-06T04:17:24.065Z,101480.59
2023-05-06T04:19:54.116Z,101474.41
2023-05-06T04:22:20.981Z,101471.81
2023-05-06T04:24:47.691Z,101465.59
2023-05-06T04:27:15.229Z,101462.97
2023-05-06T04:29:44.124Z,101438.56
2023-05-06T04:32:13.673Z,101474.19
2023-05-06T04:34:40.241Z,101476.84
2023-05-06T04:37:07.149Z,101481.16
2023-05-06T04:39:39.378Z,101467.91
2023-05-06T04:42:08.325Z,101430.66
2023-05-06T04:44:38.123Z,101462.97
2023-05-06T04:47:07.287Z,101484.31
2023-05-06T04:49:36.170Z,101483.50
2023-05-06T04:52:02.847Z,101457.03
2023-05-06T04:54:29.440Z,101477.53
2023-05-06T04:56:56.119Z,101477.53
2023-05-06T04:59:25.470Z,101481.22
2023-05-06T05:01:52.150Z,101475.00
2023-05-06T05:04:21.092Z,101483.94
2023-05-06T05:06:47.766Z,101486.63
2023-05-06T05:09:14.401Z,101481.50
2023-05-06T05:11:43.361Z,101475.28
2023-05-06T05:14:12.413Z,101487.69
2023-05-06T05:16:39.051Z,101482.41
2023-05-06T05:19:08.914Z,101495.50
2023-05-06T05:21:38.413Z,101479.78
2023-05-06T05:24:07.399Z,101480.81
2023-05-06T05:26:34.163Z,101486.19
2023-05-06T05:29:03.160Z,101477.22
2023-05-06T05:31:34.560Z,101472.13
2023-05-06T05:34:01.734Z,101485.50
2023-05-06T05:36:30.661Z,101488.28
2023-05-06T05:38:59.620Z,101483.06
2023-05-06T05:41:27.020Z,101489.31
2023-05-06T05:43:53.646Z,101492.00
2023-05-06T05:46:22.784Z,101492.06
2023-05-06T05:48:49.506Z,101490.25
2023-05-06T05:51:18.399Z,101481.63
2023-05-06T05:53:45.083Z,101494.09
2023-05-06T05:56:11.889Z,101490.69
2023-05-06T05:58:39.720Z,101460.47
2023-05-06T06:01:08.802Z,101497.69
2023-05-06T06:03:35.635Z,101480.84
2023-05-06T06:06:02.428Z,101500.59
2023-05-06T06:08:29.933Z,101513.72
2023-05-06T06:10:56.602Z,101503.19
2023-05-06T06:13:24.203Z,101508.44
2023-05-06T06:15:52.239Z,101510.22
2023-05-06T06:18:19.025Z,101506.63
2023-05-06T06:20:47.922Z,101474.75
2023-05-06T06:23:14.572Z,101506.75
2023-05-06T06:25:45.988Z,101504.13
2023-05-06T06:28:15.179Z,101515.50
2023-05-06T06:30:44.017Z,101511.19
2023-05-06T06:33:10.636Z,101485.50
2023-05-06T06:35:39.532Z,101504.13
2023-05-06T06:38:06.079Z,101513.94
2023-05-06T06:40:35.673Z,101478.47
2023-05-06T06:43:02.352Z,101495.34
2023-05-06T06:45:29.058Z,101474.00
2023-05-06T06:47:55.800Z,101471.31
2023-05-06T06:50:22.483Z,101497.97
2023-05-06T06:52:51.367Z,101526.25
2023-05-06T06:55:20.291Z,101520.22
2023-05-06T06:57:47.937Z,101524.59
2023-05-06T07:00:14.859Z,101520.22
2023-05-06T07:02:43.789Z,101515.09
2023-05-06T07:05:12.922Z,101520.44
2023-05-06T07:07:39.809Z,101514.34
2023-05-06T07:10:07.357Z,101523.28
2023-05-06T07:12:34.077Z,101528.63
2023-05-06T07:15:00.877Z,101524.28
2023-05-06T07:17:27.482Z,101526.00
2023-05-06T07:19:54.084Z,101519.00
2023-05-06T07:22:20.741Z,101521.59
2023-05-06T07:24:47.378Z,101518.09
2023-05-06T07:27:14.016Z,101529.59
2023-05-06T07:29:41.301Z,101506.66
2023-05-06T07:32:10.636Z,101527.88
2023-05-06T07:34:39.538Z,101523.50
2023-05-06T07:37:08.384Z,101522.75
2023-05-06T07:39:35.127Z,101508.34
2023-05-06T07:42:03.941Z,101511.06
2023-05-06T07:44:30.599Z,101499.41
2023-05-06T07:46:57.388Z,101521.31
2023-05-06T07:49:30.908Z,101530.13
2023-05-06T07:51:57.717Z,101517.66
2023-05-06T07:54:24.451Z,101533.28
2023-05-06T07:56:51.385Z,101527.00
2023-05-06T07:59:20.272Z,101503.03
2023-05-06T08:01:46.903Z,101516.00
2023-05-06T08:04:16.730Z,101518.41
2023-05-06T08:06:43.372Z,101520.81
2023-05-06T08:09:16.971Z,101509.13
2023-05-06T08:11:50.175Z,101522.13
2023-05-06T08:14:16.936Z,101494.66
2023-05-06T08:16:43.737Z,101525.38
2023-05-06T08:19:10.535Z,101520.88
2023-05-06T08:21:37.191Z,101512.94
2023-05-06T08:24:04.250Z,101514.78
2023-05-06T08:26:31.039Z,101466.66
2023-05-06T08:28:58.916Z,101513.84
2023-05-06T08:31:25.579Z,101511.28
2023-05-06T08:33:54.411Z,101504.09
2023-05-06T08:36:22.270Z,101510.13
2023-05-06T08:38:51.014Z,101514.66
2023-05-06T08:41:20.015Z,101513.78
2023-05-06T08:43:50.676Z,101510.31
2023-05-06T08:46:18.107Z,101493.22
2023-05-06T08:48:49.691Z,101511.06
2023-05-06T08:51:19.116Z,101488.78
2023-05-06T08:53:48.734Z,101503.84
2023-05-06T08:56:16.683Z,101511.91
2023-05-06T08:58:48.622Z,101500.38
2023-05-06T09:01:16.202Z,101505.06
2023-05-06T09:03:45.150Z,101506.09
2023-05-06T09:06:11.918Z,101507.94
2023-05-06T09:08:38.635Z,101498.38
2023-05-06T09:11:21.319Z,101495.94
2023-05-06T09:13:48.123Z,101505.56
2023-05-06T09:16:28.349Z,101477.47
2023-05-06T09:18:55.112Z,101498.66
2023-05-06T09:21:21.898Z,101490.69
2023-05-06T09:23:48.554Z,101487.19
2023-05-06T09:26:15.774Z,101492.63
2023-05-06T09:28:47.147Z,101459.75
2023-05-06T09:31:19.338Z,101485.47
2023-05-06T09:33:48.404Z,101491.63
2023-05-06T09:36:15.575Z,101500.28
2023-05-06T09:38:44.761Z,101494.13
2023-05-06T09:41:13.706Z,101493.16
2023-05-06T09:43:49.019Z,101477.13
2023-05-06T09:46:19.748Z,101493.78
2023-05-06T09:48:47.012Z,101489.44
2023-05-06T09:51:14.022Z,101486.81
2023-05-06T09:53:41.657Z,101484.94
2023-05-06T09:56:09.270Z,101484.81
2023-05-06T09:58:38.324Z,101482.19
2023-05-06T10:01:07.570Z,101480.47
2023-05-06T10:03:35.060Z,101483.28
2023-05-06T10:06:06.377Z,101479.78
2023-05-06T10:08:37.013Z,101487.03
2023-05-06T10:11:08.806Z,101476.41
2023-05-06T10:13:39.122Z,101480.03
2023-05-06T10:16:07.636Z,101456.22
2023-05-06T10:18:38.952Z,101489.03
2023-05-06T10:21:14.065Z,101487.34
2023-05-06T10:23:52.135Z,101481.31
2023-05-06T10:26:21.662Z,101481.31
2023-05-06T10:28:55.338Z,101482.13
2023-05-06T10:31:24.220Z,101477.72
2023-05-06T10:33:56.775Z,101478.56
2023-05-06T10:36:25.984Z,101477.78
2023-05-06T10:38:56.455Z,101477.78
2023-05-06T10:41:28.185Z,101468.06
2023-05-06T10:43:57.076Z,101471.56
2023-05-06T10:46:27.772Z,101472.44
2023-05-06T10:49:06.777Z,101475.84
2023-05-06T10:51:34.635Z,101460.81
2023-05-06T10:54:13.774Z,101452.53
2023-05-06T10:57:00.292Z,101475.66
2023-05-06T10:59:31.527Z,101480.91
2023-05-06T11:02:07.103Z,101470.31
2023-05-06T11:04:37.666Z,101458.63
2023-05-06T11:07:15.589Z,101465.78
2023-05-06T11:10:02.237Z,101466.66
2023-05-06T11:12:49.364Z,101472.69
2023-05-06T11:15:40.476Z,101465.72
2023-05-06T11:18:29.272Z,101465.84
2023-05-06T11:21:04.802Z,101470.22
2023-05-06T11:23:47.033Z,101470.31
2023-05-06T11:26:16.383Z,101428.75
2023-05-06T11:28:49.857Z,101462.47
2023-05-06T11:31:17.142Z,101473.75
2023-05-06T11:33:48.875Z,101460.50
2023-05-06T11:36:22.909Z,101462.28
2023-05-06T11:38:53.026Z,101464.72
2023-05-06T11:41:22.122Z,101466.53
2023-05-06T11:43:52.829Z,101466.56
2023-05-06T11:46:20.869Z,101447.38
2023-05-06T11:48:48.001Z,101455.47
2023-05-06T11:51:14.823Z,101461.56
2023-05-06T11:53:43.696Z,101448.38
2023-05-06T11:56:14.784Z,101462.69
2023-05-06T11:58:41.398Z,101453.91
2023-05-06T12:01:08.103Z,101456.63
2023-05-06T12:03:34.892Z,101460.00
2023-05-06T12:06:04.261Z,101451.84
2023-05-06T12:08:33.130Z,101472.06
2023-05-06T12:11:02.328Z,101447.34
2023-05-06T12:13:31.754Z,101470.25
2023-05-06T12:15:59.783Z,101455.28
2023-05-06T12:18:31.483Z,101464.06
2023-05-06T12:21:04.230Z,101442.91
2023-05-06T12:23:33.488Z,101460.63
2023-05-06T12:26:08.371Z,101471.16
2023-05-06T12:28:38.716Z,101464.97
2023-05-06T12:31:22.932Z,101473.75
2023-05-06T12:33:50.644Z,101472.13
2023-05-06T12:36:18.685Z,101451.91
2023-05-06T12:38:59.683Z,101461.75
2023-05-06T12:41:37.391Z,101463.81
2023-05-06T12:44:24.343Z,101462.25
2023-05-06T12:46:52.836Z,101461.50
2023-05-06T12:49:21.679Z,101458.16
2023-05-06T12:52:05.572Z,101456.34
2023-05-06T12:54:32.280Z,101435.28
2023-05-06T12:56:58.968Z,101463.75
2023-05-06T12:59:28.381Z,101456.75
2023-05-06T13:01:55.155Z,101467.47
2023-05-06T13:04:24.155Z,101462.16
2023-05-06T13:06:53.406Z,101460.53
2023-05-06T13:09:20.307Z,101461.38
2023-05-06T13:11:47.036Z,101462.53
2023-05-06T13:14:13.801Z,101463.72
2023-05-06T13:16:42.338Z,101430.16
2023-05-06T13:19:21.148Z,101463.09
2023-05-06T13:21:51.878Z,101434.84
2023-05-06T13:24:18.529Z,101462.34
2023-05-06T13:26:45.110Z,101457.28
2023-05-06T13:29:11.727Z,101445.84
2023-05-06T13:31:38.352Z,101459.09
2023-05-06T13:34:05.037Z,101452.94
2023-05-06T13:36:32.648Z,101462.03
2023-05-06T13:38:59.282Z,101455.91
2023-05-06T13:41:28.330Z,101434.69
2023-05-06T13:43:57.327Z,101442.84
2023-05-06T13:46:24.104Z,101444.53
2023-05-06T13:48:51.202Z,101449.84
2023-05-06T13:51:20.236Z,101430.31
2023-05-06T13:53:49.341Z,101445.56
2023-05-06T13:56:21.573Z,101434.16
2023-05-06T13:58:48.222Z,101442.22
2023-05-06T14:01:15.196Z,101451.03
2023-05-06T14:03:41.874Z,101440.69
2023-05-06T14:06:11.695Z,101426.59
2023-05-06T14:08:43.020Z,101443.44
2023-05-06T14:11:11.881Z,101442.53
2023-05-06T14:13:42.089Z,101425.75
2023-05-06T14:16:08.745Z,101426.56
2023-05-06T14:18:37.681Z,101438.06
2023-05-06T14:21:04.324Z,101443.19
2023-05-06T14:23:32.427Z,101434.31
2023-05-06T14:26:01.652Z,101434.31
2023-05-06T14:28:28.300Z,101433.34
2023-05-06T14:30:55.357Z,101432.38
2023-05-06T14:33:23.605Z,101435.81
2023-05-06T14:35:52.966Z,101417.19
2023-05-06T14:38:21.827Z,101427.03
2023-05-06T14:40:48.465Z,101396.06
2023-05-06T14:43:15.095Z,101417.56
2023-05-06T14:45:44.054Z,101427.31
2023-05-06T14:48:13.254Z,101414.09
2023-05-06T14:50:40.010Z,101429.09
2023-05-06T14:53:06.690Z,101423.81
2023-05-06T14:55:33.302Z,101427.31
2023-05-06T14:58:02.081Z,101408.00
2023-05-06T15:00:31.171Z,101419.44
2023-05-06T15:02:58.578Z,101418.53
2023-05-06T15:05:27.465Z,101374.31
2023-05-06T15:07:56.182Z,101413.28
2023-05-06T15:10:22.821Z,101408.91
2023-05-06T15:12:49.494Z,101394.81
2023-05-06T15:15:16.149Z,101408.16
2023-05-06T15:17:45.809Z,101422.97
2023-05-06T15:20:13.667Z,101411.59
2023-05-06T15:22:40.460Z,101414.25
2023-05-06T15:25:16.648Z,101410.88
2023-05-06T15:27:49.364Z,101417.81
2023-05-06T15:30:16.451Z,101415.25
2023-05-06T15:32:43.190Z,101417.06
2023-05-06T15:35:10.143Z,101417.91
2023-05-06T15:37:36.948Z,101422.22
2023-05-06T15:40:05.597Z,101411.69
2023-05-06T15:42:32.355Z,101423.13
2023-05-06T15:45:01.181Z,101419.63
2023-05-06T15:47:27.909Z,101414.31
2023-05-06T15:50:10.905Z,101417.69
2023-05-06T15:52:48.668Z,101386.81
2023-05-06T15:55:15.596Z,101421.41
2023-05-06T15:57:43.791Z,101400.16
2023-05-06T16:00:12.407Z,101424.94
2023-05-06T16:02:39.530Z,101424.22
2023-05-06T16:05:09.868Z,101424.25
2023-05-06T16:07:39.183Z,101404.88
2023-05-06T16:10:06.590Z,101417.47
2023-05-06T16:12:33.407Z,101403.31
2023-05-06T16:15:03.333Z,101416.72
2023-05-06T16:17:30.393Z,101421.13
2023-05-06T16:19:57.161Z,101417.59
2023-05-06T16:22:26.105Z,101420.19
2023-05-06T16:24:52.699Z,101423.78
2023-05-06T16:27:19.328Z,101412.44
2023-05-06T16:29:48.056Z,101422.19
2023-05-06T16:32:17.088Z,101392.19
2023-05-06T16:34:43.793Z,101424.09
2023-05-06T16:37:10.517Z,101409.28
2023-05-06T16:39:42.353Z,101413.75
2023-05-06T16:42:09.027Z,101417.28
2023-05-06T16:44:35.711Z,101425.19
2023-05-06T16:47:02.450Z,101418.25
2023-05-06T16:49:29.245Z,101426.16
2023-05-06T16:51:57.299Z,101423.56
2023-05-06T16:54:24.088Z,101417.50
2023-05-06T16:56:52.532Z,101414.97
2023-05-06T16:59:21.915Z,101406.06
2023-05-06T17:01:49.629Z,101416.72
2023-05-06T17:04:16.239Z,101408.88
2023-05-06T17:06:42.929Z,101410.63
2023-05-06T17:09:12.264Z,101410.75
2023-05-06T17:11:38.958Z,101414.28
2023-05-06T17:14:05.565Z,101407.34
2023-05-06T17:16:34.634Z,101414.44
2023-05-06T17:19:01.338Z,101392.41
2023-05-06T17:21:28.117Z,101410.19
2023-05-06T17:23:54.879Z,101411.94
2023-05-06T17:26:22.272Z,101409.38
2023-05-06T17:28:51.500Z,101412.06
2023-05-06T17:31:18.821Z,101405.09
2023-05-06T17:33:48.343Z,101406.94
2023-05-06T17:36:17.257Z,101415.69
2023-05-06T17:38:43.978Z,101405.19
2023-05-06T17:41:10.969Z,101405.03
2023-05-06T17:43:37.660Z,101405.09
2023-05-06T17:46:04.336Z,101405.91
2023-05-06T17:48:35.805Z,101404.22
2023-05-06T17:51:02.999Z,101400.72
2023-05-06T17:53:29.910Z,101412.91
2023-05-06T17:55:58.914Z,101415.53
2023-05-06T17:58:25.639Z,101404.00
2023-05-06T18:00:54.891Z,101420.63
2023-05-06T18:03:24.871Z,101410.03
2023-05-06T18:05:51.860Z,101396.66
2023-05-06T18:08:20.806Z,101419.63
2023-05-06T18:10:50.628Z,101416.09
2023-05-06T18:13:17.452Z,101378.00
2023-05-06T18:15:44.215Z,101420.50
2023-05-06T18:18:11.034Z,101412.50
2023-05-06T18:20:37.741Z,101412.63
2023-05-06T18:23:06.629Z,101420.59
2023-05-06T18:25:33.251Z,101418.06
2023-05-06T18:27:59.992Z,101411.06
2023-05-06T18:30:26.581Z,101410.09
2023-05-06T18:32:55.253Z,101415.41
2023-05-06T18:35:23.290Z,101408.31
2023-05-06T18:37:49.984Z,101409.22
2023-05-06T18:40:16.795Z,101389.53
2023-05-06T18:42:43.474Z,101411.75
2023-05-06T18:45:10.955Z,101417.03
2023-05-06T18:47:40.934Z,101380.66
2023-05-06T18:50:11.063Z,101397.38
2023-05-06T18:52:40.197Z,101425.69
2023-05-06T18:55:07.692Z,101431.72
2023-05-06T18:57:34.387Z,101418.38
2023-05-06T19:00:01.078Z,101433.44
2023-05-06T19:02:27.796Z,101438.59
2023-05-06T19:04:54.396Z,101425.44
2023-05-06T19:07:23.259Z,101430.47
2023-05-06T19:09:52.017Z,101432.25
2023-05-06T19:12:18.686Z,101397.59
2023-05-06T19:14:45.330Z,101437.34
2023-05-06T19:17:12.057Z,101437.31
2023-05-06T19:19:38.718Z,101435.41
2023-05-06T19:22:05.388Z,101430.88
2023-05-06T19:24:32.031Z,101444.06
2023-05-06T19:26:58.654Z,101436.16
2023-05-06T19:29:25.268Z,101415.84
2023-05-06T19:31:52.023Z,101445.72
2023-05-06T19:34:18.703Z,101420.06
2023-05-06T19:36:45.578Z,101424.34
2023-05-06T19:39:12.274Z,101442.00
2023-05-06T19:41:39.677Z,101452.47
2023-05-06T19:44:08.606Z,101442.78
2023-05-06T19:46:35.466Z,101451.50
2023-05-06T19:49:02.118Z,101464.44
2023-05-06T19:51:28.951Z,101460.84
2023-05-06T19:53:55.567Z,101467.72
2023-05-06T19:56:22.228Z,101468.50
2023-05-06T19:58:51.104Z,101459.78
2023-05-06T20:01:21.865Z,101444.53
2023-05-06T20:03:48.759Z,101450.75
2023-05-06T20:06:15.545Z,101479.84
2023-05-06T20:08:44.513Z,101470.25
2023-05-06T20:11:15.870Z,101480.75
2023-05-06T20:13:42.515Z,101463.94
2023-05-06T20:16:09.316Z,101488.56
2023-05-06T20:18:36.013Z,101474.41
2023-05-06T20:21:06.028Z,101497.13
2023-05-06T20:23:32.757Z,101501.44
2023-05-06T20:25:59.378Z,101503.13
2023-05-06T20:28:28.620Z,101502.13
2023-05-06T20:30:59.856Z,101456.00
2023-05-06T20:33:26.591Z,101503.94
2023-05-06T20:35:53.507Z,101510.00
2023-05-06T20:38:20.750Z,101520.44
2023-05-06T20:40:48.195Z,101474.34
2023-05-06T20:43:15.679Z,101504.56
2023-05-06T20:45:42.378Z,101503.34
2023-05-06T20:48:09.170Z,101482.91
2023-05-06T20:50:35.957Z,101515.72
2023-05-06T20:53:02.698Z,101512.81
2023-05-06T20:55:29.435Z,101522.56
2023-05-06T20:57:56.137Z,101519.91
2023-05-06T21:00:29.999Z,101514.47
2023-05-06T21:02:56.836Z,101515.38
2023-05-06T21:05:23.902Z,101525.97
2023-05-06T21:07:53.952Z,101494.06
2023-05-06T21:10:20.752Z,101513.69
2023-05-06T21:12:50.862Z,101507.53
2023-05-06T21:15:20.080Z,101490.63
2023-05-06T21:17:46.942Z,101512.88
2023-05-06T21:20:13.722Z,101524.28
2023-05-06T21:22:40.388Z,101519.00
2023-05-06T21:25:08.086Z,101518.91
2023-05-06T21:27:34.849Z,101525.03
2023-05-06T21:30:03.571Z,101538.97
2023-05-06T21:32:33.101Z,101527.59
2023-05-06T21:35:06.583Z,101492.00
2023-05-06T21:37:33.260Z,101530.84
2023-05-06T21:40:02.838Z,101511.38
2023-05-06T21:42:29.972Z,101529.03
2023-05-06T21:44:59.096Z,101541.25
2023-05-06T21:47:25.933Z,101534.91
2023-05-06T21:49:52.566Z,101538.47
2023-05-06T21:52:19.312Z,101547.34
2023-05-06T21:54:46.489Z,101550.06
2023-05-06T21:57:18.812Z,101534.09
2023-05-06T21:59:45.504Z,101553.47
2023-05-06T22:02:12.282Z,101557.00
2023-05-06T22:04:38.999Z,101543.84
2023-05-06T22:07:05.830Z,101544.69
2023-05-06T22:09:32.474Z,101551.78
2023-05-06T22:11:59.089Z,101544.84
2023-05-06T22:14:30.218Z,101532.25
2023-05-06T22:17:04.899Z,101543.00
2023-05-06T22:19:31.599Z,101551.81
2023-05-06T22:21:58.720Z,101559.66
2023-05-06T22:24:27.986Z,101564.97
2023-05-06T22:26:54.648Z,101567.47
2023-05-06T22:29:23.773Z,101571.88
2023-05-06T22:31:50.459Z,101573.63
2023-05-06T22:34:19.607Z,101583.16
2023-05-06T22:36:46.581Z,101578.78
2023-05-06T22:39:13.324Z,101541.78
2023-05-06T22:41:39.951Z,101563.88
2023-05-06T22:44:06.658Z,101550.72
2023-05-06T22:46:35.664Z,101576.16
2023-05-06T22:49:04.665Z,101572.56
2023-05-06T22:51:34.278Z,101553.03
2023-05-06T22:54:01.015Z,101582.09
2023-05-06T22:56:27.744Z,101567.91
2023-05-06T22:58:54.428Z,101572.31
2023-05-06T23:01:25.267Z,101576.56
2023-05-06T23:03:51.983Z,101574.72
2023-05-06T23:06:18.803Z,101577.38
2023-05-06T23:08:47.945Z,101578.19
2023-05-06T23:11:14.595Z,101553.34
2023-05-06T23:13:41.224Z,101587.03
2023-05-06T23:16:10.204Z,101582.66
2023-05-06T23:18:39.090Z,101586.16
2023-05-06T23:21:05.896Z,101590.47
2023-05-06T23:23:34.796Z,101559.56
2023-05-06T23:26:01.441Z,101593.00
2023-05-06T23:28:28.494Z,101583.41
2023-05-06T23:30:55.148Z,101581.63
2023-05-06T23:33:22.288Z,101586.84
2023-05-06T23:35:49.115Z,101586.78
2023-05-06T23:38:20.470Z,101591.19
2023-05-06T23:40:47.260Z,101592.09
2023-05-06T23:43:13.895Z,101602.53
2023-05-06T23:45:40.839Z,101594.47
2023-05-06T23:48:07.763Z,101606.03
2023-05-06T23:50:34.430Z,101602.47
2023-05-06T23:53:01.315Z,101605.03
2023-05-06T23:55:29.088Z,101607.66
2023-05-06T23:57:56.299Z,101619.03
